Time;durP1;ratioP1;P1;durP2;ratioP2;P2;SDS_P1;SDS_P2;PMS_P1;PMS_P2;Temp;Humidity;BMP_temperature;BMP_pressure;BME280_temperature;BME280_humidity;BME280_pressure;Samples;Min_cycle;Max_cycle;Signal;HPM_P1;HPM_P2
2021/12/22 00:01:14;;;;;;;20.40;13.20;;;-1.60;99.90;;;;;;5094476;28;20086;-76
2021/12/22 00:03:45;;;;;;;22.23;14.25;;;-1.60;99.90;;;;;;5094536;28;20089;-79
2021/12/22 00:06:10;;;;;;;24.08;14.50;;;-0.20;99.90;;;;;;5094497;28;20055;-77
2021/12/22 00:08:36;;;;;;;24.58;14.45;;;-1.70;99.90;;;;;;5094364;28;20036;-78
2021/12/22 00:11:02;;;;;;;21.00;14.75;;;-1.60;99.90;;;;;;5076546;28;20177;-77
2021/12/22 00:13:29;;;;;;;22.38;14.50;;;-1.80;99.90;;;;;;5094231;28;20414;-75
2021/12/22 00:15:55;;;;;;;34.60;14.38;;;-1.70;99.90;;;;;;5094041;28;20048;-76
2021/12/22 00:18:21;;;;;;;27.40;14.88;;;-1.80;99.90;;;;;;5110379;28;20052;-76
2021/12/22 00:20:47;;;;;;;24.40;13.82;;;-1.60;99.90;;;;;;5075998;28;20131;-76
2021/12/22 00:23:13;;;;;;;22.60;14.98;;;-0.40;99.90;;;;;;5094057;28;20102;-76
2021/12/22 00:25:38;;;;;;;20.27;13.75;;;-1.60;99.90;;;;;;5110152;28;20048;-77
2021/12/22 00:28:04;;;;;;;19.20;13.48;;;-1.60;99.90;;;;;;5110116;28;20078;-77
2021/12/22 00:30:30;;;;;;;21.55;12.75;;;-1.60;99.90;;;;;;5093820;28;20499;-76
2021/12/22 00:33:02;;;;;;;25.10;12.50;;;-1.70;99.90;;;;;;5094128;28;20093;-75
2021/12/22 00:35:37;;;;;;;22.65;13.30;;;-1.70;99.90;;;;;;5094018;28;20047;-78
2021/12/22 00:38:03;;;;;;;22.15;13.70;;;-1.80;99.90;;;;;;5093847;28;20044;-76
2021/12/22 00:40:28;;;;;;;17.48;11.50;;;-0.80;99.90;;;;;;5075800;28;20032;-75
2021/12/22 00:42:54;;;;;;;19.92;13.18;;;-1.30;99.90;;;;;;5093640;28;20089;-76
2021/12/22 00:45:23;;;;;;;26.55;12.80;;;-1.80;99.90;;;;;;5093821;28;20090;-77
2021/12/22 00:47:49;;;;;;;24.00;14.05;;;-1.30;99.90;;;;;;5093821;28;20096;-77
2021/12/22 00:50:16;;;;;;;21.75;13.07;;;-1.80;99.90;;;;;;5075692;28;20541;-78
2021/12/22 00:52:42;;;;;;;26.23;12.23;;;-1.80;99.90;;;;;;5093629;28;20522;-77
2021/12/22 00:55:08;;;;;;;19.23;12.75;;;-1.80;99.90;;;;;;5093594;28;20039;-75
2021/12/22 00:57:35;;;;;;;;;;;-1.80;99.90;;;;;;5093958;28;20063;-76
2021/12/22 01:00:01;;;;;;;18.87;12.63;;;-1.30;99.90;;;;;;5093494;28;20010;-76
2021/12/22 01:02:27;;;;;;;17.10;10.80;;;-1.80;99.90;;;;;;5093057;28;20126;-78
2021/12/22 01:04:53;;;;;;;19.05;11.50;;;-1.80;99.90;;;;;;5093683;28;20522;-78
2021/12/22 01:07:19;;;;;;;20.63;11.63;;;-1.80;99.90;;;;;;5109201;28;20528;-75
2021/12/22 01:09:45;;;;;;;23.25;13.18;;;-1.80;99.90;;;;;;5093458;28;20044;-76
2021/12/22 01:12:11;;;;;;;21.55;11.95;;;-1.70;99.90;;;;;;5093345;28;20097;-76
2021/12/22 01:14:38;;;;;;;19.15;12.18;;;-1.90;99.90;;;;;;5093111;28;20051;-76
2021/12/22 01:17:06;;;;;;;18.77;11.60;;;0.00;99.90;;;;;;5093473;28;20056;-78
2021/12/22 01:19:44;;;;;;;18.80;12.88;;;-1.90;99.90;;;;;;5093029;28;20511;-74
2021/12/22 01:25:00;;;;;;;20.02;12.43;;;-2.00;99.90;;;;;;5093125;28;20048;-74
2021/12/22 01:27:33;;;;;;;20.27;13.85;;;0.10;99.90;;;;;;5093383;28;20109;-76
2021/12/22 01:29:59;;;;;;;20.60;12.63;;;-2.00;99.90;;;;;;5093253;28;20051;-75
2021/12/22 01:32:25;;;;;;;24.60;12.88;;;-2.20;99.90;;;;;;5093238;28;20081;-76
2021/12/22 01:34:51;;;;;;;19.05;11.13;;;-2.00;99.90;;;;;;5075216;28;20063;-78
2021/12/22 01:37:17;;;;;;;16.73;11.52;;;-2.10;99.90;;;;;;5093174;28;20455;-74
2021/12/22 01:39:43;;;;;;;21.48;12.45;;;-2.10;99.90;;;;;;5075032;28;20052;-76
2021/12/22 01:42:09;;;;;;;16.17;11.30;;;-2.10;99.90;;;;;;5075549;28;20064;-74
2021/12/22 01:45:11;;;;;;;18.02;12.18;;;-2.10;99.90;;;;;;5093037;28;20481;-75
2021/12/22 01:50:28;;;;;;;21.02;12.73;;;-2.10;99.90;;;;;;5092931;28;20048;-74
2021/12/22 01:52:54;;;;;;;24.90;12.30;;;-2.30;99.90;;;;;;5093087;28;20054;-77
2021/12/22 01:55:32;;;;;;;19.60;11.98;;;-2.10;99.90;;;;;;5093056;28;20156;-77
2021/12/22 01:58:00;;;;;;;23.63;13.63;;;-0.90;99.90;;;;;;5092979;28;20051;-77
2021/12/22 02:00:26;;;;;;;18.98;11.85;;;-1.10;99.90;;;;;;5092833;28;20540;-75
2021/12/22 02:02:52;;;;;;;23.17;11.93;;;-0.50;99.90;;;;;;5092819;28;20131;-76
2021/12/22 02:05:18;;;;;;;15.15;10.95;;;-2.30;99.90;;;;;;5093023;28;20158;-77
2021/12/22 02:07:44;;;;;;;16.77;11.85;;;-0.60;99.90;;;;;;5092851;28;20398;-75
2021/12/22 02:12:45;;;;;;;20.13;11.25;;;-2.40;99.90;;;;;;5094369;28;20487;-75
2021/12/22 02:15:12;;;;;;;18.73;11.30;;;-2.20;99.90;;;;;;5096517;28;20052;-77
2021/12/22 02:17:40;;;;;;;15.70;12.68;;;-2.20;99.90;;;;;;5096362;28;20461;-77
2021/12/22 02:20:06;;;;;;;17.70;10.43;;;-0.30;99.90;;;;;;5061693;28;20052;-76
2021/12/22 02:22:33;;;;;;;18.92;11.90;;;-2.20;99.90;;;;;;5096534;28;20052;-74
2021/12/22 02:25:05;;;;;;;17.77;11.35;;;-2.20;99.90;;;;;;5096376;28;20054;-76
2021/12/22 02:27:37;;;;;;;18.10;12.55;;;-2.30;99.90;;;;;;5096407;28;20047;-74
2021/12/22 02:30:06;;;;;;;19.55;11.45;;;-2.30;99.90;;;;;;5096187;28;20048;-78
2021/12/22 02:35:03;;;;;;;23.00;12.13;;;-2.30;99.90;;;;;;5096345;28;20040;-75
2021/12/22 02:37:30;;;;;;;16.70;11.07;;;-2.30;99.90;;;;;;5078152;28;20047;-74
2021/12/22 02:40:10;;;;;;;16.67;11.05;;;-2.40;99.90;;;;;;5078314;28;20059;-76
2021/12/22 02:42:36;;;;;;;16.42;10.90;;;-2.30;99.90;;;;;;5077860;28;20507;-76
2021/12/22 02:45:18;;;;;;;16.80;11.55;;;-2.30;99.90;;;;;;5077520;28;20048;-75
2021/12/22 02:47:44;;;;;;;15.40;10.40;;;-1.10;99.90;;;;;;5096069;28;20087;-75
2021/12/22 02:50:12;;;;;;;16.05;11.15;;;-2.40;99.90;;;;;;5095883;28;20491;-76
2021/12/22 02:55:29;;;;;;;14.15;9.98;;;-2.30;99.90;;;;;;5095693;28;20050;-77
2021/12/22 02:57:59;;;;;;;20.15;11.30;;;-2.50;99.90;;;;;;5095924;28;20044;-79
2021/12/22 03:05:56;;;;;;;19.38;11.43;;;-2.50;99.90;;;;;;5033064;28;20049;-75
2021/12/22 03:08:21;;;;;;;17.58;10.65;;;-2.50;99.90;;;;;;5033044;28;20053;-77
2021/12/22 03:10:51;;;;;;;18.27;11.27;;;-2.50;99.90;;;;;;5033282;28;20052;-75
2021/12/22 03:13:19;;;;;;;14.90;10.55;;;-2.50;99.90;;;;;;5033229;28;20577;-75
2021/12/22 03:15:45;;;;;;;21.80;11.32;;;-2.60;99.90;;;;;;5032970;28;20111;-78
2021/12/22 03:18:10;;;;;;;17.58;10.38;;;-2.60;99.90;;;;;;5033132;28;20558;-75
2021/12/22 03:20:37;;;;;;;16.60;11.38;;;-2.60;99.90;;;;;;5032748;28;20199;-77
2021/12/22 03:23:04;;;;;;;16.88;10.15;;;-2.60;99.90;;;;;;5016184;28;20465;-74
2021/12/22 03:25:30;;;;;;;16.00;9.65;;;-2.60;99.90;;;;;;5032154;28;20124;-77
2021/12/22 03:28:01;;;;;;;14.00;9.45;;;-2.70;99.90;;;;;;5032815;28;20057;-77
2021/12/22 03:30:26;;;;;;;15.68;10.20;;;-2.80;99.90;;;;;;5016184;28;20100;-76
2021/12/22 03:32:52;;;;;;;16.77;10.05;;;-2.80;99.90;;;;;;5032791;28;20049;-76
2021/12/22 03:35:20;;;;;;;18.08;10.07;;;-2.90;99.90;;;;;;5016078;28;20062;-75
2021/12/22 03:37:50;;;;;;;19.13;10.95;;;-2.80;99.90;;;;;;5032514;28;20084;-76
2021/12/22 03:40:17;;;;;;;13.93;9.77;;;-2.80;99.90;;;;;;5032672;28;20108;-74
2021/12/22 03:42:43;;;;;;;13.32;9.32;;;-1.30;99.90;;;;;;5094978;28;20457;-76
2021/12/22 03:45:09;;;;;;;15.93;9.80;;;-2.80;99.90;;;;;;5094719;28;20043;-75
2021/12/22 03:47:35;;;;;;;15.23;10.80;;;-2.70;99.90;;;;;;5094759;28;20044;-75
2021/12/22 03:50:01;;;;;;;18.75;11.10;;;-2.80;99.90;;;;;;5094658;28;20040;-74
2021/12/22 03:52:26;;;;;;;14.75;9.15;;;-2.80;99.90;;;;;;5077019;28;20070;-73
2021/12/22 03:54:58;;;;;;;17.58;10.60;;;-2.80;99.90;;;;;;5094919;28;20055;-75
2021/12/22 03:57:24;;;;;;;17.80;11.15;;;-2.80;99.90;;;;;;5094695;28;20094;-75
2021/12/22 03:59:50;;;;;;;16.67;11.57;;;-2.90;99.90;;;;;;5094531;28;20456;-74
2021/12/22 04:02:19;;;;;;;14.18;10.38;;;-2.00;99.90;;;;;;5076638;28;20127;-74
2021/12/22 04:04:47;;;;;;;18.23;9.55;;;-2.90;99.90;;;;;;5094334;28;20044;-76
2021/12/22 04:07:13;;;;;;;17.30;10.30;;;-2.80;99.90;;;;;;5094608;28;20087;-73
2021/12/22 04:09:38;;;;;;;14.18;8.68;;;-2.90;99.90;;;;;;5094520;28;20072;-76
2021/12/22 04:12:04;;;;;;;24.58;10.45;;;-1.60;99.90;;;;;;5094474;28;20138;-77
2021/12/22 04:14:30;;;;;;;16.13;10.13;;;-3.00;99.90;;;;;;5094294;28;20104;-78
2021/12/22 04:16:56;;;;;;;16.67;9.63;;;-3.00;99.90;;;;;;5094183;28;20048;-76
2021/12/22 04:19:21;;;;;;;15.15;9.77;;;-1.20;99.90;;;;;;5093962;28;20067;-77
2021/12/22 04:21:49;;;;;;;16.20;10.68;;;-1.90;99.90;;;;;;5094309;28;20498;-76
2021/12/22 04:24:15;;;;;;;13.32;10.00;;;-3.10;99.90;;;;;;5076137;28;20133;-74
2021/12/22 04:26:40;;;;;;;16.55;9.65;;;-2.30;99.90;;;;;;5076296;28;20098;-75
2021/12/22 04:29:06;;;;;;;17.13;9.85;;;-3.10;99.90;;;;;;5093082;28;20044;-76
2021/12/22 04:31:32;;;;;;;15.52;9.45;;;-3.10;99.90;;;;;;5093889;28;20055;-77
2021/12/22 04:33:58;;;;;;;16.73;10.13;;;-2.10;99.90;;;;;;5093830;28;20044;-75
2021/12/22 04:36:23;;;;;;;15.65;9.02;;;-3.10;99.90;;;;;;5094054;28;20039;-77
2021/12/22 04:38:49;;;;;;;14.88;9.82;;;-3.10;99.90;;;;;;5094092;28;20094;-77
2021/12/22 04:41:15;;;;;;;15.88;10.43;;;-1.80;99.90;;;;;;5093960;28;20040;-76
2021/12/22 04:43:41;;;;;;;16.60;10.65;;;-1.10;99.90;;;;;;5093810;28;20044;-75
2021/12/22 04:46:07;;;;;;;16.90;9.80;;;-3.20;99.90;;;;;;5075596;28;20043;-76
2021/12/22 04:48:35;;;;;;;14.02;9.70;;;-3.20;99.90;;;;;;5093687;28;20062;-75
2021/12/22 04:51:00;;;;;;;18.20;10.45;;;-3.20;99.90;;;;;;5093595;28;20110;-76
2021/12/22 04:53:29;;;;;;;15.20;10.95;;;-1.90;99.90;;;;;;5093812;28;20048;-75
2021/12/22 04:55:55;;;;;;;16.38;10.82;;;-3.20;99.90;;;;;;5076166;28;20460;-74
2021/12/22 04:58:21;;;;;;;13.45;9.68;;;-3.20;99.90;;;;;;5075251;28;20135;-74
2021/12/22 05:00:46;;;;;;;17.67;10.70;;;-3.20;99.90;;;;;;5093443;28;20090;-75
2021/12/22 05:03:12;;;;;;;18.05;11.18;;;-3.20;99.90;;;;;;5075702;28;20059;-77
2021/12/22 05:05:38;;;;;;;16.27;10.75;;;-3.30;99.90;;;;;;5075124;28;20051;-74
2021/12/22 05:08:04;;;;;;;15.30;11.05;;;-3.30;99.90;;;;;;5093557;28;20047;-75
2021/12/22 05:10:30;;;;;;;13.50;10.63;;;-3.30;99.90;;;;;;5093751;28;20071;-76
2021/12/22 05:12:56;;;;;;;17.42;10.77;;;-3.30;99.90;;;;;;5093454;28;20483;-75
2021/12/22 05:15:23;;;;;;;17.52;9.90;;;-3.40;99.90;;;;;;5075524;28;20403;-76
2021/12/22 05:20:19;;;;;;;16.90;10.00;;;-3.60;99.90;;;;;;5093287;28;20064;-75
2021/12/22 05:22:45;;;;;;;15.38;10.25;;;-3.40;99.90;;;;;;5093418;28;20051;-76
2021/12/22 05:25:12;;;;;;;16.08;11.27;;;-3.60;99.90;;;;;;5093321;28;20515;-75
2021/12/22 05:27:38;;;;;;;18.33;10.90;;;-3.40;99.90;;;;;;5093306;28;20052;-76
2021/12/22 05:30:06;;;;;;;16.38;10.45;;;-3.40;99.90;;;;;;5093156;28;20039;-74
2021/12/22 05:32:33;;;;;;;16.73;10.50;;;-3.40;99.90;;;;;;5075073;28;20508;-74
2021/12/22 05:35:00;;;;;;;15.80;10.38;;;-3.60;99.90;;;;;;5093036;28;20488;-74
2021/12/22 05:37:26;;;;;;;16.42;11.35;;;-3.40;99.90;;;;;;5093212;28;20055;-75
2021/12/22 05:39:52;;;;;;;15.80;10.43;;;-3.40;99.90;;;;;;5093254;28;20052;-74
2021/12/22 05:42:19;;;;;;;;;;;-3.50;99.90;;;;;;5075799;28;20047;-78
2021/12/22 05:44:45;;;;;;;16.42;9.90;;;-3.40;99.90;;;;;;5074802;28;19920;-76
2021/12/22 05:47:11;;;;;;;15.77;10.10;;;-3.40;99.90;;;;;;5094063;28;20052;-77
2021/12/22 05:49:37;;;;;;;14.00;10.23;;;-3.40;99.90;;;;;;5096999;28;20101;-76
2021/12/22 05:52:04;;;;;;;18.75;10.52;;;-1.20;99.90;;;;;;5097524;28;20123;-77
2021/12/22 05:54:30;;;;;;;17.30;10.07;;;-3.40;99.90;;;;;;5097191;28;20087;-77
2021/12/22 05:56:56;;;;;;;26.13;12.77;;;-3.50;99.90;;;;;;5096948;28;20525;-76
2021/12/22 05:59:21;;;;;;;17.13;10.43;;;-1.60;99.90;;;;;;5079001;28;20083;-77
2021/12/22 06:01:47;;;;;;;16.20;11.45;;;-3.60;99.90;;;;;;5096923;28;20048;-75
2021/12/22 06:04:13;;;;;;;14.93;10.48;;;-3.60;99.90;;;;;;5096763;28;20097;-75
2021/12/22 06:06:38;;;;;;;15.85;10.35;;;-3.50;99.90;;;;;;5096554;28;20051;-76
2021/12/22 06:09:05;;;;;;;16.88;10.63;;;-3.60;99.90;;;;;;5096879;28;20506;-76
2021/12/22 06:11:31;;;;;;;17.98;11.50;;;-3.50;99.90;;;;;;5097008;28;20044;-75
2021/12/22 06:13:57;;;;;;;18.42;11.05;;;-1.80;99.90;;;;;;5096853;28;20154;-76
2021/12/22 06:16:23;;;;;;;;;;;-3.70;99.90;;;;;;5096992;28;20052;-77
2021/12/22 06:18:55;;;;;;;21.27;10.80;;;-3.60;99.90;;;;;;5078662;28;19942;-77
2021/12/22 06:21:21;;;;;;;17.70;10.52;;;-3.70;99.90;;;;;;5096720;28;20169;-77
2021/12/22 06:23:47;;;;;;;19.70;10.38;;;-3.60;99.90;;;;;;5096446;28;20040;-77
2021/12/22 06:26:13;;;;;;;16.10;11.05;;;-3.80;99.90;;;;;;5096512;28;20044;-77
2021/12/22 06:28:40;;;;;;;15.85;10.55;;;-3.60;99.90;;;;;;5096429;28;20043;-75
2021/12/22 06:31:06;;;;;;;18.67;11.50;;;-3.60;99.90;;;;;;5096195;28;20047;-76
2021/12/22 06:33:33;;;;;;;15.63;10.98;;;-3.60;99.90;;;;;;5096195;28;20044;-74
2021/12/22 06:35:59;;;;;;;;;;;-3.40;99.90;;;;;;5078755;28;20048;-76
2021/12/22 06:38:25;;;;;;;16.90;10.63;;;-2.60;99.90;;;;;;5095054;28;19920;-77
2021/12/22 06:40:51;;;;;;;14.50;10.25;;;-3.80;99.90;;;;;;5112094;28;20097;-75
2021/12/22 06:43:17;;;;;;;19.55;11.27;;;-3.70;99.90;;;;;;5096125;28;20044;-75
2021/12/22 06:45:43;;;;;;;20.00;10.75;;;-1.50;99.90;;;;;;5095778;28;20431;-78
2021/12/22 06:48:08;;;;;;;19.20;11.35;;;-3.70;99.90;;;;;;5112058;28;20039;-73
2021/12/22 06:50:34;;;;;;;15.85;11.85;;;-3.70;99.90;;;;;;5078052;28;20077;-74
2021/12/22 06:53:00;;;;;;;17.77;11.23;;;-3.70;99.90;;;;;;5096020;28;20048;-75
2021/12/22 06:55:26;;;;;;;15.90;10.85;;;-3.70;99.90;;;;;;5095903;28;20441;-76
2021/12/22 06:57:52;;;;;;;19.23;12.43;;;-3.70;99.90;;;;;;5111776;28;20656;-74
2021/12/22 07:00:19;;;;;;;17.25;9.95;;;-3.70;99.90;;;;;;5094754;28;20100;-75
2021/12/22 07:02:45;;;;;;;;;;;-1.50;99.90;;;;;;5096163;28;20163;-77
2021/12/22 07:05:13;;;;;;;13.90;10.25;;;-3.80;99.90;;;;;;5095493;28;20446;-76
2021/12/22 07:07:39;;;;;;;20.85;11.25;;;-3.70;99.90;;;;;;5095726;28;20502;-77
2021/12/22 07:10:07;;;;;;;17.40;11.60;;;-3.70;99.90;;;;;;5095707;28;20049;-74
2021/12/22 07:12:40;;;;;;;17.90;10.60;;;-3.70;99.90;;;;;;5095572;28;20052;-77
2021/12/22 07:15:09;;;;;;;16.65;10.73;;;-3.70;99.90;;;;;;5095480;28;20090;-74
2021/12/22 07:17:36;;;;;;;15.63;9.85;;;-3.70;99.90;;;;;;5095336;28;20051;-74
2021/12/22 07:20:05;;;;;;;19.20;11.15;;;-3.70;99.90;;;;;;5095197;28;20495;-74
2021/12/22 07:22:35;;;;;;;19.65;11.25;;;-3.60;99.90;;;;;;5077617;28;20039;-76
2021/12/22 07:25:01;;;;;;;18.90;11.13;;;-3.80;99.90;;;;;;5095266;28;20082;-74
2021/12/22 07:27:26;;;;;;;16.58;11.18;;;-3.70;99.90;;;;;;5077485;28;20080;-75
2021/12/22 07:29:52;;;;;;;20.38;12.55;;;-3.60;99.90;;;;;;5095176;28;20056;-75
2021/12/22 07:32:18;;;;;;;29.45;11.30;;;-3.60;99.90;;;;;;5094998;28;20044;-74
2021/12/22 07:34:55;;;;;;;17.85;11.68;;;-1.30;99.90;;;;;;5095003;28;20047;-76
2021/12/22 07:37:41;;;;;;;17.83;10.27;;;-3.60;99.90;;;;;;5095004;28;20484;-75
2021/12/22 07:40:10;;;;;;;16.80;10.95;;;-3.50;99.90;;;;;;5094999;28;20403;-75
2021/12/22 07:42:36;;;;;;;16.85;10.32;;;-3.60;99.90;;;;;;5094940;28;20040;-77
2021/12/22 07:45:03;;;;;;;18.75;11.77;;;-3.60;99.90;;;;;;5076653;28;20048;-74
2021/12/22 07:47:28;;;;;;;18.48;11.60;;;-3.60;99.90;;;;;;5095032;28;20398;-74
2021/12/22 07:49:54;;;;;;;21.80;11.60;;;-3.70;99.90;;;;;;5094923;28;20127;-76
2021/12/22 07:52:20;;;;;;;15.60;10.95;;;-3.70;99.90;;;;;;5094911;28;20104;-76
2021/12/22 07:54:46;;;;;;;17.25;11.25;;;-3.60;99.90;;;;;;5094730;28;20509;-76
2021/12/22 07:57:12;;;;;;;23.13;11.00;;;-3.60;99.90;;;;;;5094685;28;20127;-74
2021/12/22 07:59:38;;;;;;;17.88;10.35;;;-3.60;99.90;;;;;;5094544;28;20044;-75
2021/12/22 08:02:04;;;;;;;21.08;11.00;;;-3.90;99.90;;;;;;5094765;28;20044;-75
2021/12/22 08:04:30;;;;;;;17.23;11.80;;;-3.80;99.90;;;;;;5094607;28;20036;-76
2021/12/22 08:06:56;;;;;;;19.30;10.98;;;-3.60;99.90;;;;;;5094450;28;20059;-74
2021/12/22 08:09:25;;;;;;;19.52;10.80;;;-3.60;99.90;;;;;;5094525;28;20054;-76
2021/12/22 08:11:53;;;;;;;19.48;10.98;;;-1.60;99.90;;;;;;5094148;28;20487;-76
2021/12/22 08:14:22;;;;;;;17.60;10.43;;;-3.60;99.90;;;;;;5094276;28;20051;-74
2021/12/22 08:16:48;;;;;;;22.55;12.70;;;-3.70;99.90;;;;;;5076331;28;20040;-75
2021/12/22 08:19:14;;;;;;;21.17;11.73;;;-3.60;99.90;;;;;;5076295;28;20040;-76
2021/12/22 08:21:39;;;;;;;17.80;10.80;;;-3.60;99.90;;;;;;5094317;28;20544;-75
2021/12/22 08:24:05;;;;;;;20.42;12.75;;;-3.70;99.90;;;;;;5094252;28;20047;-76
2021/12/22 08:26:31;;;;;;;17.60;10.65;;;-3.50;99.90;;;;;;5076329;28;20102;-77
2021/12/22 08:28:57;;;;;;;18.30;10.07;;;-3.60;99.90;;;;;;5094026;28;20048;-74
2021/12/22 08:31:23;;;;;;;22.73;11.25;;;-3.60;99.90;;;;;;5093823;28;20124;-77
2021/12/22 08:33:48;;;;;;;19.88;10.93;;;-3.60;99.90;;;;;;5094135;28;20495;-77
2021/12/22 08:39:03;;;;;;;20.90;12.50;;;-3.00;99.90;;;;;;5078490;28;20521;-74
2021/12/22 08:41:32;;;;;;;17.98;11.02;;;-1.20;99.90;;;;;;5093842;28;20455;-75
2021/12/22 08:44:01;;;;;;;22.20;10.77;;;-3.50;99.90;;;;;;5109513;28;20453;-74
2021/12/22 08:46:27;;;;;;;20.00;10.82;;;-3.20;99.90;;;;;;5093592;28;20469;-76
2021/12/22 08:48:53;;;;;;;21.83;13.43;;;-3.40;99.90;;;;;;5075726;28;20044;-77
2021/12/22 08:51:21;;;;;;;18.35;11.27;;;-3.40;99.90;;;;;;5093898;28;20102;-77
2021/12/22 08:53:47;;;;;;;20.88;12.32;;;-3.30;99.90;;;;;;5093690;28;20044;-75
2021/12/22 08:56:13;;;;;;;17.50;10.73;;;-3.30;99.90;;;;;;5093561;28;20047;-75
2021/12/22 08:58:39;;;;;;;19.52;12.50;;;-2.30;99.90;;;;;;5093473;28;20483;-75
2021/12/22 09:01:05;;;;;;;25.15;13.02;;;-3.20;99.90;;;;;;5075850;28;20047;-75
2021/12/22 09:03:32;;;;;;;;;;;-3.20;99.90;;;;;;5094058;28;20055;-74
2021/12/22 09:05:59;;;;;;;25.02;12.27;;;-3.20;99.90;;;;;;5093559;28;19920;-77
2021/12/22 09:08:24;;;;;;;17.85;11.50;;;-3.10;99.90;;;;;;5093411;28;20036;-76
2021/12/22 09:10:50;;;;;;;16.95;10.98;;;-3.20;99.90;;;;;;5093414;28;20407;-76
2021/12/22 09:13:17;;;;;;;21.48;13.60;;;-3.10;99.90;;;;;;5093367;28;20093;-77
2021/12/22 09:15:43;;;;;;;16.95;11.13;;;-1.20;99.90;;;;;;5075717;28;20048;-76
2021/12/22 09:18:08;;;;;;;22.05;12.00;;;-3.00;99.90;;;;;;5093512;28;20071;-76
2021/12/22 09:20:34;;;;;;;27.35;12.68;;;-3.00;99.90;;;;;;5092893;28;20058;-77
2021/12/22 09:23:00;;;;;;;21.77;11.25;;;-3.00;99.90;;;;;;5092543;28;20097;-74
2021/12/22 09:25:25;;;;;;;24.27;13.27;;;-3.00;99.90;;;;;;5093182;28;20067;-75
2021/12/22 09:27:51;;;;;;;22.13;12.30;;;-2.90;99.90;;;;;;5075559;28;20368;-76
2021/12/22 09:30:17;;;;;;;23.25;10.98;;;-2.90;99.90;;;;;;5093130;28;20120;-76
2021/12/22 09:32:43;;;;;;;20.42;12.20;;;-2.90;99.90;;;;;;5093382;28;20118;-77
2021/12/22 09:35:09;;;;;;;22.67;11.98;;;-2.80;99.90;;;;;;5075565;28;20468;-74
2021/12/22 09:37:35;;;;;;;26.17;12.95;;;-2.80;99.90;;;;;;5093330;28;20131;-75
2021/12/22 09:40:04;;;;;;;17.50;12.55;;;-2.80;99.90;;;;;;5093213;28;20127;-75
2021/12/22 09:42:29;;;;;;;19.63;11.98;;;-2.70;99.90;;;;;;5093170;28;20048;-76
2021/12/22 09:44:59;;;;;;;17.98;11.27;;;-2.70;99.90;;;;;;5108705;28;20400;-74
2021/12/22 09:47:32;;;;;;;21.67;12.82;;;-2.70;99.90;;;;;;5093207;28;20044;-75
2021/12/22 09:50:12;;;;;;;23.25;12.23;;;-2.60;99.90;;;;;;5093148;28;20091;-74
2021/12/22 09:52:38;;;;;;;19.50;11.05;;;-1.00;99.90;;;;;;5075202;28;20048;-75
2021/12/22 09:55:07;;;;;;;27.02;14.75;;;-2.60;99.90;;;;;;5092908;28;20047;-74
2021/12/22 09:57:33;;;;;;;21.77;13.35;;;-2.50;99.90;;;;;;5092917;28;20383;-76
2021/12/22 10:00:00;;;;;;;21.13;12.30;;;-0.90;99.90;;;;;;5093104;28;20040;-74
2021/12/22 10:02:29;;;;;;;21.38;11.50;;;-2.40;99.90;;;;;;5092998;28;20040;-76
2021/12/22 10:04:59;;;;;;;20.20;13.38;;;-2.60;99.90;;;;;;5092910;28;20123;-74
2021/12/22 10:07:29;;;;;;;19.95;12.70;;;-2.50;99.90;;;;;;5092976;28;20092;-76
2021/12/22 10:10:03;;;;;;;19.98;11.15;;;-0.80;99.90;;;;;;5092801;28;20058;-77
2021/12/22 10:12:28;;;;;;;19.33;12.38;;;-2.40;99.90;;;;;;5092992;28;20048;-75
2021/12/22 10:14:57;;;;;;;18.90;11.65;;;-2.30;99.90;;;;;;5075181;28;20249;-74
2021/12/22 10:17:36;;;;;;;23.27;13.02;;;-2.30;99.90;;;;;;5092907;28;20052;-75
2021/12/22 10:20:08;;;;;;;20.25;11.70;;;-1.50;99.90;;;;;;5092794;28;20067;-76
2021/12/22 10:22:40;;;;;;;21.95;13.18;;;-2.10;99.90;;;;;;5092655;28;20055;-77
2021/12/22 10:25:16;;;;;;;21.65;12.15;;;-2.10;99.90;;;;;;5092564;28;20503;-77
2021/12/22 10:27:46;;;;;;;19.17;12.30;;;-2.10;99.90;;;;;;5092870;28;20139;-74
2021/12/22 10:30:30;;;;;;;25.80;14.52;;;-1.20;99.90;;;;;;5092694;28;20044;-74
2021/12/22 10:33:19;;;;;;;25.95;14.23;;;-0.80;99.90;;;;;;5075278;28;20087;-77
2021/12/22 10:35:57;;;;;;;26.85;16.27;;;-1.80;99.90;;;;;;5096418;28;20040;-76
2021/12/22 10:38:25;;;;;;;24.25;14.35;;;-1.90;99.90;;;;;;5096259;28;20048;-75
2021/12/22 10:40:54;;;;;;;24.20;16.40;;;-1.80;99.90;;;;;;5096221;28;20398;-75
2021/12/22 10:43:21;;;;;;;28.33;16.40;;;-1.80;99.90;;;;;;5078023;28;20211;-77
2021/12/22 10:45:51;;;;;;;25.60;16.58;;;-1.70;99.90;;;;;;5095819;28;20070;-75
2021/12/22 10:51:19;;;;;;;21.45;13.57;;;-1.20;99.90;;;;;;5096007;28;20189;-74
2021/12/22 10:53:48;;;;;;;24.38;14.20;;;-1.60;99.90;;;;;;5095863;28;20044;-78
2021/12/22 10:56:47;;;;;;;18.83;11.50;;;0.20;99.90;;;;;;5095744;28;20093;-76
2021/12/22 10:59:19;;;;;;;23.75;12.93;;;-1.50;99.90;;;;;;5077687;28;20050;-75
2021/12/22 11:01:56;;;;;;;19.52;12.63;;;-1.50;99.90;;;;;;5095709;28;20048;-75
2021/12/22 11:04:31;;;;;;;23.13;12.30;;;-0.90;99.90;;;;;;5095578;28;20373;-77
2021/12/22 11:07:23;;;;;;;21.73;13.93;;;-1.30;99.90;;;;;;5095750;28;20444;-77
2021/12/22 11:09:50;;;;;;;19.20;12.25;;;0.40;99.90;;;;;;5095684;28;20403;-75
2021/12/22 11:12:17;;;;;;;20.17;11.65;;;-1.20;99.90;;;;;;5095672;28;20177;-77
2021/12/22 11:14:47;;;;;;;20.75;12.15;;;-1.20;99.90;;;;;;5095346;28;20487;-75
2021/12/22 11:17:19;;;;;;;15.63;10.55;;;-1.10;99.90;;;;;;5077562;28;20503;-76
2021/12/22 11:20:06;;;;;;;19.92;10.77;;;-1.10;99.90;;;;;;5095413;28;20075;-76
2021/12/22 11:23:04;;;;;;;20.85;11.38;;;-1.00;99.90;;;;;;5077644;28;20055;-78
2021/12/22 11:25:31;;;;;;;21.45;12.07;;;1.00;99.90;;;;;;5095171;28;20123;-76
2021/12/22 11:27:58;;;;;;;20.92;12.63;;;-1.00;99.90;;;;;;5095472;28;20051;-77
2021/12/22 11:30:26;;;;;;;16.52;10.77;;;-0.50;99.90;;;;;;5095283;28;20055;-76
2021/12/22 11:32:54;;;;;;;17.13;11.52;;;-0.10;99.90;;;;;;5095224;28;20407;-77
2021/12/22 11:35:21;;;;;;;16.38;11.65;;;-1.00;99.90;;;;;;5095320;28;20040;-78
2021/12/22 11:37:47;;;;;;;18.08;10.80;;;0.90;99.90;;;;;;5095172;28;20476;-77
2021/12/22 11:40:16;;;;;;;16.75;11.02;;;1.20;99.90;;;;;;5094956;28;20051;-77
2021/12/22 11:42:42;;;;;;;17.65;10.93;;;-0.70;99.90;;;;;;5077025;28;20120;-75
2021/12/22 11:45:15;;;;;;;17.98;10.95;;;-0.70;99.90;;;;;;5094283;28;20048;-76
2021/12/22 11:47:43;;;;;;;18.20;11.27;;;-0.70;99.90;;;;;;5077166;28;20047;-76
2021/12/22 11:50:25;;;;;;;18.58;10.88;;;0.70;99.90;;;;;;5094941;28;20054;-78
2021/12/22 11:53:02;;;;;;;15.55;10.13;;;-0.70;99.90;;;;;;5094775;28;20059;-78
2021/12/22 11:55:49;;;;;;;21.80;10.95;;;-0.60;99.90;;;;;;5094859;28;20040;-77
2021/12/22 11:58:33;;;;;;;21.25;10.75;;;-0.50;99.90;;;;;;5076978;28;20048;-78
2021/12/22 12:00:59;;;;;;;14.90;9.65;;;-0.50;99.90;;;;;;5094556;28;20047;-76
2021/12/22 12:03:40;;;;;;;17.63;10.57;;;-0.50;99.90;;;;;;5076380;28;20048;-77
2021/12/22 12:06:15;;;;;;;19.08;10.40;;;-0.50;99.90;;;;;;5094653;28;20055;-74
2021/12/22 12:08:48;;;;;;;21.10;11.43;;;-0.40;99.90;;;;;;5094540;28;20047;-76
2021/12/22 12:11:43;;;;;;;20.15;11.27;;;-0.40;99.90;;;;;;5094407;28;20048;-75
2021/12/22 12:14:37;;;;;;;15.45;10.55;;;0.30;99.90;;;;;;5094523;28;20040;-75
2021/12/22 12:23:20;;;;;;;20.38;10.68;;;-0.20;99.90;;;;;;5094299;28;20087;-78
2021/12/22 12:25:46;;;;;;;17.20;10.48;;;-0.20;99.90;;;;;;5093855;28;20461;-77
2021/12/22 12:28:17;;;;;;;17.20;9.65;;;-0.20;99.90;;;;;;5094091;28;20056;-77
2021/12/22 12:30:52;;;;;;;16.92;8.98;;;-0.10;99.90;;;;;;5093873;28;20039;-78
2021/12/22 12:33:22;;;;;;;16.08;9.27;;;-0.10;99.90;;;;;;5076234;28;20415;-78
2021/12/22 12:36:01;;;;;;;14.85;9.80;;;-0.20;99.90;;;;;;5094010;28;20047;-76
2021/12/22 12:38:41;;;;;;;16.38;9.85;;;-0.10;99.90;;;;;;5093839;28;20130;-76
2021/12/22 12:41:12;;;;;;;11.88;8.43;;;0.50;99.90;;;;;;5093851;28;20055;-75
2021/12/22 12:43:48;;;;;;;15.57;9.55;;;1.60;99.90;;;;;;5093895;28;20048;-75
2021/12/22 12:46:20;;;;;;;14.73;9.63;;;-0.10;99.90;;;;;;5075783;28;20047;-76
2021/12/22 12:48:54;;;;;;;14.07;8.73;;;0.60;99.90;;;;;;5093821;28;20044;-77
2021/12/22 12:51:26;;;;;;;15.32;10.13;;;1.40;99.90;;;;;;5093738;28;20127;-78
2021/12/22 12:53:57;;;;;;;19.10;8.98;;;-0.10;99.90;;;;;;5093496;28;20293;-76
2021/12/22 12:56:40;;;;;;;15.40;9.75;;;-0.10;99.90;;;;;;5093060;28;20048;-78
2021/12/22 12:59:08;;;;;;;15.73;9.52;;;0.80;99.90;;;;;;5093660;28;20051;-77
2021/12/22 13:01:46;;;;;;;16.88;9.88;;;-0.10;99.90;;;;;;5093395;28;20526;-75
2021/12/22 13:04:41;;;;;;;15.23;9.18;;;0.20;99.90;;;;;;5093502;28;20372;-76
2021/12/22 13:07:18;;;;;;;12.95;8.73;;;0.90;99.90;;;;;;5075682;28;20515;-75
2021/12/22 13:09:49;;;;;;;15.90;9.07;;;1.30;99.90;;;;;;5093606;28;20059;-78
2021/12/22 13:12:19;;;;;;;18.38;10.20;;;1.10;99.90;;;;;;5093492;28;20497;-74